Time;durP1;ratioP1;P1;durP2;ratioP2;P2;SDS_P1;SDS_P2;PMS_P1;PMS_P2;Temp;Humidity;BMP_temperature;BMP_pressure;BME280_temperature;BME280_humidity;BME280_pressure;Samples;Min_cycle;Max_cycle;Signal;HPM_P1;HPM_P2
2022/01/16 00:01:45;;;;;;;77.13;24.45;;;;;;;;;;5151792;27;20567;-62
2022/01/16 00:04:10;;;;;;;89.75;26.42;;;;;;;;;;5151920;27;20460;-63
2022/01/16 00:06:37;;;;;;;100.00;26.20;;;;;;;;;;5152257;27;20062;-63
2022/01/16 00:09:04;;;;;;;87.18;25.70;;;;;;;;;;5152736;27;20047;-63
2022/01/16 00:11:31;;;;;;;85.63;24.85;;;;;;;;;;5152934;27;20102;-63
2022/01/16 00:13:57;;;;;;;82.72;27.10;;;;;;;;;;5151215;27;20057;-62
2022/01/16 00:16:24;;;;;;;78.10;27.85;;;;;;;;;;5151188;27;20047;-62
2022/01/16 00:18:52;;;;;;;95.55;27.00;;;;;;;;;;5152229;27;20075;-63
2022/01/16 00:21:19;;;;;;;105.18;27.65;;;;;;;;;;5151671;27;20057;-63
2022/01/16 00:23:46;;;;;;;88.50;26.15;;;;;;;;;;5151732;27;20055;-62
2022/01/16 00:26:12;;;;;;;95.57;27.25;;;;;;;;;;5152346;27;20057;-63
2022/01/16 00:28:38;;;;;;;91.93;28.08;;;;;;;;;;5152338;27;20081;-63
2022/01/16 00:31:05;;;;;;;93.93;25.45;;;;;;;;;;5151353;27;20422;-62
2022/01/16 00:33:31;;;;;;;98.28;27.17;;;;;;;;;;5151738;27;20448;-63
2022/01/16 00:35:57;;;;;;;92.13;27.35;;;;;;;;;;5151302;27;20074;-62
2022/01/16 00:38:24;;;;;;;112.72;26.58;;;;;;;;;;5150528;27;20146;-62
2022/01/16 00:40:50;;;;;;;93.47;25.48;;;;;;;;;;5150513;27;20061;-62
2022/01/16 00:43:16;;;;;;;89.15;25.83;;;;;;;;;;5151374;27;20493;-63
2022/01/16 00:45:43;;;;;;;89.50;27.15;;;;;;;;;;5150844;27;20146;-62
2022/01/16 00:48:10;;;;;;;80.18;25.92;;;;;;;;;;5151093;27;20086;-62
2022/01/16 00:50:36;;;;;;;85.57;25.50;;;;;;;;;;5151408;27;20043;-63
2022/01/16 00:53:02;;;;;;;81.50;26.20;;;;;;;;;;5151753;27;20057;-62
2022/01/16 00:55:29;;;;;;;99.00;26.05;;;;;;;;;;5151023;27;20071;-63
2022/01/16 00:57:55;;;;;;;74.70;24.73;;;;;;;;;;5151631;27;20448;-63
2022/01/16 01:00:31;;;;;;;82.68;24.92;;;;;;;;;;5151832;27;20051;-63
2022/01/16 01:02:59;;;;;;;75.20;24.27;;;;;;;;;;5151092;27;20128;-62
2022/01/16 01:05:26;;;;;;;80.68;22.63;;;;;;;;;;5150893;27;20064;-62
2022/01/16 01:07:53;;;;;;;87.03;25.85;;;;;;;;;;5150852;27;20138;-62
2022/01/16 01:10:31;;;;;;;77.40;24.50;;;;;;;;;;5151175;27;20047;-62
2022/01/16 01:13:08;;;;;;;78.90;24.88;;;;;;;;;;5150743;27;20613;-62
2022/01/16 01:15:47;;;;;;;83.43;25.70;;;;;;;;;;5151054;27;20100;-63
2022/01/16 01:18:14;;;;;;;84.50;23.80;;;;;;;;;;5150544;27;20059;-63
2022/01/16 01:20:41;;;;;;;88.72;25.58;;;;;;;;;;5150859;27;20055;-63
2022/01/16 01:23:09;;;;;;;79.57;24.13;;;;;;;;;;5150525;27;20142;-62
2022/01/16 01:25:36;;;;;;;70.47;23.00;;;;;;;;;;5150693;27;20108;-62
2022/01/16 01:28:03;;;;;;;68.65;23.08;;;;;;;;;;5150467;27;20492;-63
2022/01/16 01:30:29;;;;;;;71.65;24.70;;;;;;;;;;5148821;27;20062;-62
2022/01/16 01:32:56;;;;;;;67.95;23.85;;;;;;;;;;5150677;27;20479;-62
2022/01/16 01:35:23;;;;;;;68.15;23.70;;;;;;;;;;5150968;27;20938;-63
2022/01/16 01:37:49;;;;;;;64.55;24.17;;;;;;;;;;5150542;27;20054;-62
2022/01/16 01:40:18;;;;;;;72.47;25.20;;;;;;;;;;5151535;27;20054;-62
2022/01/16 01:43:02;;;;;;;98.93;25.58;;;;;;;;;;5149856;27;20057;-62
2022/01/16 01:51:09;;;;;;;71.82;22.63;;;;;;;;;;5150016;27;20083;-62
2022/01/16 01:53:36;;;;;;;88.90;25.70;;;;;;;;;;5150357;27;20935;-63
2022/01/16 01:56:04;;;;;;;70.47;24.27;;;;;;;;;;5149765;27;20058;-62
2022/01/16 01:58:30;;;;;;;81.85;25.40;;;;;;;;;;5150136;27;20059;-62
2022/01/16 02:00:57;;;;;;;77.25;25.92;;;;;;;;;;5150233;27;20055;-62
2022/01/16 02:05:50;;;;;;;81.20;25.63;;;;;;;;;;5149940;27;20047;-63
2022/01/16 02:08:16;;;;;;;99.28;26.30;;;;;;;;;;5150486;27;20051;-62
2022/01/16 02:10:43;;;;;;;78.55;25.35;;;;;;;;;;5150121;27;20051;-63
2022/01/16 02:13:18;;;;;;;102.20;27.10;;;;;;;;;;5149260;27;20138;-62
2022/01/16 02:31:57;;;;;;;90.90;26.98;;;;;;;;;;5150156;27;20051;-62
2022/01/16 02:37:04;;;;;;;83.88;25.83;;;;;;;;;;5149552;27;20043;-62
2022/01/16 02:39:34;;;;;;;107.85;28.77;;;;;;;;;;5150246;27;20051;-62
2022/01/16 02:42:02;;;;;;;100.78;26.90;;;;;;;;;;5149056;27;20807;-63
2022/01/16 02:46:55;;;;;;;94.68;26.70;;;;;;;;;;5148740;27;20138;-63
2022/01/16 02:49:23;;;;;;;107.35;30.45;;;;;;;;;;5149332;27;20941;-63
2022/01/16 02:52:04;;;;;;;96.00;28.20;;;;;;;;;;5148644;27;20051;-62
2022/01/16 02:54:35;;;;;;;93.38;28.23;;;;;;;;;;5148975;27;20051;-63
2022/01/16 02:57:02;;;;;;;98.90;27.52;;;;;;;;;;5149453;27;20057;-63
2022/01/16 02:59:29;;;;;;;93.97;28.42;;;;;;;;;;5149383;27;20081;-62
2022/01/16 03:01:55;;;;;;;95.60;28.73;;;;;;;;;;5149171;27;20436;-62
2022/01/16 03:04:22;;;;;;;102.28;29.20;;;;;;;;;;5149697;27;20489;-63
2022/01/16 03:06:48;;;;;;;97.65;27.88;;;;;;;;;;5149332;27;20155;-62
2022/01/16 03:09:16;;;;;;;99.93;29.75;;;;;;;;;;5148950;27;20051;-63
2022/01/16 03:11:47;;;;;;;94.40;27.58;;;;;;;;;;5148660;27;20061;-62
2022/01/16 03:14:18;;;;;;;105.53;28.10;;;;;;;;;;5148891;27;20056;-63
2022/01/16 03:16:49;;;;;;;104.55;30.73;;;;;;;;;;5149030;27;20516;-62
2022/01/16 03:22:03;;;;;;;94.47;28.77;;;;;;;;;;5149394;27;20658;-63
2022/01/16 03:24:29;;;;;;;102.93;28.15;;;;;;;;;;5149051;27;20055;-63
2022/01/16 03:26:58;;;;;;;101.13;28.98;;;;;;;;;;5149216;27;20457;-62
2022/01/16 03:29:25;;;;;;;92.57;27.98;;;;;;;;;;5148903;27;20130;-63
2022/01/16 03:31:51;;;;;;;109.32;30.25;;;;;;;;;;5147889;27;20578;-62
2022/01/16 03:34:18;;;;;;;122.25;32.28;;;;;;;;;;5148872;27;20489;-62
2022/01/16 03:36:44;;;;;;;105.30;30.92;;;;;;;;;;5147728;27;20047;-62
2022/01/16 03:39:11;;;;;;;124.32;31.73;;;;;;;;;;5148538;27;20055;-62
2022/01/16 03:41:38;;;;;;;103.68;30.90;;;;;;;;;;5148907;27;20410;-63
2022/01/16 03:44:05;;;;;;;105.82;29.83;;;;;;;;;;5148276;27;20142;-62
2022/01/16 03:46:36;;;;;;;115.28;32.15;;;;;;;;;;5148603;27;20051;-62
2022/01/16 03:49:07;;;;;;;108.50;30.85;;;;;;;;;;5149434;27;20477;-63
2022/01/16 03:51:33;;;;;;;108.47;30.10;;;;;;;;;;5149128;27;20057;-62
2022/01/16 03:54:00;;;;;;;118.78;30.42;;;;;;;;;;5150251;27;20051;-63
2022/01/16 03:56:26;;;;;;;113.50;31.45;;;;;;;;;;5152128;27;20051;-62
2022/01/16 03:58:52;;;;;;;116.50;32.80;;;;;;;;;;5151962;27;20057;-62
2022/01/16 04:01:19;;;;;;;110.07;31.73;;;;;;;;;;5151469;27;20051;-63
2022/01/16 04:03:46;;;;;;;113.50;31.88;;;;;;;;;;5151717;27;20072;-63
2022/01/16 04:06:12;;;;;;;112.75;30.92;;;;;;;;;;5152508;27;20051;-62
2022/01/16 04:08:38;;;;;;;103.97;31.60;;;;;;;;;;5151556;27;20110;-62
2022/01/16 04:11:05;;;;;;;123.95;32.40;;;;;;;;;;5151790;27;20064;-62
2022/01/16 04:13:32;;;;;;;102.07;32.10;;;;;;;;;;5151936;27;20065;-63
2022/01/16 04:15:58;;;;;;;108.60;31.80;;;;;;;;;;5151574;27;20507;-63
2022/01/16 04:18:25;;;;;;;118.63;33.08;;;;;;;;;;5151755;27;20511;-63
2022/01/16 04:20:51;;;;;;;127.10;32.78;;;;;;;;;;5151973;27;20053;-63
2022/01/16 04:23:17;;;;;;;101.45;32.22;;;;;;;;;;5151700;27;20051;-62
2022/01/16 04:25:44;;;;;;;125.38;32.83;;;;;;;;;;5150686;27;20061;-63
2022/01/16 04:28:10;;;;;;;122.53;35.50;;;;;;;;;;5151429;27;20154;-63
2022/01/16 04:30:36;;;;;;;116.90;31.63;;;;;;;;;;5152215;27;20051;-63
2022/01/16 04:33:03;;;;;;;123.25;32.20;;;;;;;;;;5152379;27;20051;-63
2022/01/16 04:35:29;;;;;;;117.75;33.38;;;;;;;;;;5151903;27;20051;-63
2022/01/16 04:37:55;;;;;;;117.75;33.95;;;;;;;;;;5150878;27;20051;-63
2022/01/16 04:40:40;;;;;;;105.40;33.17;;;;;;;;;;5151088;27;20063;-63
2022/01/16 04:45:51;;;;;;;107.97;33.50;;;;;;;;;;5151657;27;20058;-63
2022/01/16 04:48:17;;;;;;;130.35;36.10;;;;;;;;;;5151622;27;20513;-63
2022/01/16 04:50:44;;;;;;;119.97;35.47;;;;;;;;;;5132210;27;20047;-63
2022/01/16 04:53:10;;;;;;;120.55;33.40;;;;;;;;;;5151193;27;20078;-63
2022/01/16 04:55:36;;;;;;;132.98;37.08;;;;;;;;;;5151300;27;20539;-63
2022/01/16 04:58:02;;;;;;;119.85;33.30;;;;;;;;;;5151173;27;20094;-63
2022/01/16 05:00:29;;;;;;;120.00;35.42;;;;;;;;;;5151858;27;20062;-63
2022/01/16 05:02:55;;;;;;;127.60;35.05;;;;;;;;;;5150832;27;20073;-63
2022/01/16 05:05:21;;;;;;;110.40;36.70;;;;;;;;;;5150417;27;20057;-63
2022/01/16 05:07:48;;;;;;;115.88;33.78;;;;;;;;;;5151302;27;20051;-63
2022/01/16 05:10:14;;;;;;;115.55;35.72;;;;;;;;;;5150784;27;20047;-63
2022/01/16 05:12:44;;;;;;;112.13;36.20;;;;;;;;;;5150064;27;20050;-63
2022/01/16 05:17:56;;;;;;;112.97;35.33;;;;;;;;;;5150336;27;20850;-63
2022/01/16 05:20:22;;;;;;;106.72;36.80;;;;;;;;;;5151106;27;20063;-62
2022/01/16 05:22:48;;;;;;;102.10;35.67;;;;;;;;;;5150708;27;20057;-63
2022/01/16 05:25:17;;;;;;;111.47;35.20;;;;;;;;;;5150324;27;20141;-63
2022/01/16 05:27:43;;;;;;;120.68;36.58;;;;;;;;;;5150014;27;20055;-63
2022/01/16 05:30:10;;;;;;;109.82;35.92;;;;;;;;;;5150849;27;20053;-63
2022/01/16 05:32:36;;;;;;;120.03;37.30;;;;;;;;;;5150744;27;20055;-63
2022/01/16 05:35:06;;;;;;;106.50;36.15;;;;;;;;;;5151057;27;20100;-63
2022/01/16 05:37:32;;;;;;;101.90;33.28;;;;;;;;;;5151333;27;20051;-63
2022/01/16 05:39:59;;;;;;;99.32;34.53;;;;;;;;;;5149154;27;20463;-62
2022/01/16 05:42:25;;;;;;;112.95;36.00;;;;;;;;;;5150719;27;20047;-63
2022/01/16 05:44:51;;;;;;;97.72;34.83;;;;;;;;;;5150395;27;20051;-63
2022/01/16 05:47:18;;;;;;;104.53;36.63;;;;;;;;;;5150120;27;20066;-63
2022/01/16 05:49:44;;;;;;;96.68;35.38;;;;;;;;;;5150849;27;20501;-63
2022/01/16 05:52:22;;;;;;;92.35;34.97;;;;;;;;;;5150513;27;20134;-63
2022/01/16 05:54:48;;;;;;;91.47;33.92;;;;;;;;;;5150494;27;20138;-63
2022/01/16 05:57:15;;;;;;;93.97;35.42;;;;;;;;;;5150438;27;20057;-63
2022/01/16 05:59:42;;;;;;;92.70;34.33;;;;;;;;;;5150582;27;20065;-63
2022/01/16 06:02:08;;;;;;;95.40;34.85;;;;;;;;;;5150114;27;20137;-63
2022/01/16 06:04:35;;;;;;;91.40;35.08;;;;;;;;;;5148883;27;20051;-63
2022/01/16 06:07:01;;;;;;;88.07;34.25;;;;;;;;;;5150455;27;20559;-63
2022/01/16 06:09:28;;;;;;;90.18;33.90;;;;;;;;;;5150210;27;20047;-63
2022/01/16 06:11:54;;;;;;;91.50;36.50;;;;;;;;;;5150423;27;20378;-63
2022/01/16 06:14:22;;;;;;;90.70;34.92;;;;;;;;;;5149511;27;20055;-63
2022/01/16 06:16:48;;;;;;;86.07;33.72;;;;;;;;;;5149188;27;20483;-63
2022/01/16 06:19:14;;;;;;;96.13;34.90;;;;;;;;;;5131255;27;20047;-63
2022/01/16 06:21:40;;;;;;;89.78;34.00;;;;;;;;;;5150327;27;20047;-63
2022/01/16 06:24:07;;;;;;;85.13;34.17;;;;;;;;;;5150326;27;20409;-62
2022/01/16 06:26:33;;;;;;;86.15;34.10;;;;;;;;;;5149718;27;20047;-63
2022/01/16 06:28:59;;;;;;;88.80;35.13;;;;;;;;;;5149200;27;20855;-63
2022/01/16 06:31:26;;;;;;;89.40;34.30;;;;;;;;;;5150175;27;20607;-63
2022/01/16 06:33:52;;;;;;;90.15;34.08;;;;;;;;;;5149709;27;20131;-63
2022/01/16 06:36:19;;;;;;;89.93;36.28;;;;;;;;;;5149675;27;20057;-63
2022/01/16 06:38:46;;;;;;;89.22;35.35;;;;;;;;;;5149034;27;20139;-63
2022/01/16 06:41:13;;;;;;;87.55;34.78;;;;;;;;;;5149665;27;20059;-63
2022/01/16 06:43:39;;;;;;;79.68;34.25;;;;;;;;;;5149580;27;20055;-63
2022/01/16 06:46:05;;;;;;;85.65;34.30;;;;;;;;;;5149265;27;20062;-63
2022/01/16 06:48:32;;;;;;;80.60;33.15;;;;;;;;;;5150500;27;20051;-63
2022/01/16 06:50:58;;;;;;;95.28;35.17;;;;;;;;;;5149550;27;21022;-63
2022/01/16 06:53:24;;;;;;;91.40;33.85;;;;;;;;;;5148201;27;20066;-63
2022/01/16 06:55:51;;;;;;;84.25;33.05;;;;;;;;;;5148862;27;20066;-63
2022/01/16 06:58:17;;;;;;;80.20;34.38;;;;;;;;;;5149481;27;20051;-64
2022/01/16 07:00:43;;;;;;;77.72;32.95;;;;;;;;;;5148968;27;20142;-63
2022/01/16 07:03:10;;;;;;;80.10;32.80;;;;;;;;;;5149219;27;20127;-63
2022/01/16 07:05:36;;;;;;;78.63;32.67;;;;;;;;;;5150040;27;20055;-63
2022/01/16 07:08:03;;;;;;;78.13;32.47;;;;;;;;;;5149921;27;20047;-63
2022/01/16 07:10:29;;;;;;;78.07;32.60;;;;;;;;;;5149184;27;20047;-63
2022/01/16 07:12:55;;;;;;;72.65;31.55;;;;;;;;;;5148452;27;20134;-63
2022/01/16 07:15:22;;;;;;;70.45;30.98;;;;;;;;;;5148975;27;20047;-63
2022/01/16 07:17:48;;;;;;;78.78;32.97;;;;;;;;;;5148301;27;20053;-63
2022/01/16 07:20:15;;;;;;;74.40;31.45;;;;;;;;;;5149866;27;20054;-63
2022/01/16 07:22:42;;;;;;;68.03;30.67;;;;;;;;;;5149054;27;20479;-64
2022/01/16 07:25:09;;;;;;;71.07;31.73;;;;;;;;;;5149475;27;20098;-63
2022/01/16 07:27:35;;;;;;;68.22;31.08;;;;;;;;;;5148914;27;20524;-63
2022/01/16 07:30:02;;;;;;;69.45;32.33;;;;;;;;;;5152203;27;20050;-63
2022/01/16 07:32:29;;;;;;;70.43;30.42;;;;;;;;;;5152563;27;20128;-63
2022/01/16 07:34:55;;;;;;;63.75;28.77;;;;;;;;;;5152712;27;20057;-62
2022/01/16 07:37:21;;;;;;;63.20;28.95;;;;;;;;;;5152267;27;20137;-62
2022/01/16 07:39:48;;;;;;;59.55;27.80;;;;;;;;;;5152562;27;20063;-64
2022/01/16 07:42:14;;;;;;;64.65;29.05;;;;;;;;;;5151855;27;20046;-65
2022/01/16 07:44:40;;;;;;;58.78;27.45;;;;;;;;;;5151892;27;20166;-62
2022/01/16 07:47:07;;;;;;;64.88;27.02;;;;;;;;;;5153405;27;20153;-62
2022/01/16 07:49:33;;;;;;;54.00;26.63;;;;;;;;;;5152599;27;20055;-62
2022/01/16 07:52:00;;;;;;;50.08;26.13;;;;;;;;;;5152227;27;20126;-62
2022/01/16 07:54:26;;;;;;;51.38;23.83;;;;;;;;;;5152426;27;20057;-62
2022/01/16 07:56:52;;;;;;;57.20;25.90;;;;;;;;;;5151842;27;20053;-62
2022/01/16 07:59:19;;;;;;;54.55;26.33;;;;;;;;;;5152649;27;20067;-62
2022/01/16 08:01:45;;;;;;;50.58;25.38;;;;;;;;;;5152077;27;20841;-62
2022/01/16 08:04:12;;;;;;;44.03;23.95;;;;;;;;;;5151983;27;20055;-64
2022/01/16 08:06:38;;;;;;;52.13;24.05;;;;;;;;;;5151717;27;20055;-63
2022/01/16 08:09:04;;;;;;;54.90;25.38;;;;;;;;;;5151786;27;20576;-62
2022/01/16 08:11:31;;;;;;;46.72;24.00;;;;;;;;;;5152038;27;20141;-63
2022/01/16 08:13:57;;;;;;;47.92;22.20;;;;;;;;;;5152239;27;20055;-63
2022/01/16 08:16:24;;;;;;;41.35;21.10;;;;;;;;;;5152006;27;20052;-63
2022/01/16 08:18:50;;;;;;;42.83;21.70;;;;;;;;;;5151366;27;20077;-63
2022/01/16 08:21:17;;;;;;;43.22;20.55;;;;;;;;;;5152157;27;20046;-63
2022/01/16 08:23:43;;;;;;;38.25;19.05;;;;;;;;;;5151843;27;20170;-62
2022/01/16 08:26:09;;;;;;;40.80;20.73;;;;;;;;;;5151834;27;20059;-63
2022/01/16 08:28:36;;;;;;;37.85;19.25;;;;;;;;;;5151568;27;20428;-64
2022/01/16 08:31:02;;;;;;;40.30;19.95;;;;;;;;;;5151396;27;20588;-63
2022/01/16 08:33:28;;;;;;;40.08;18.85;;;;;;;;;;5151418;27;20055;-63
2022/01/16 08:35:55;;;;;;;39.20;18.40;;;;;;;;;;5151721;27;20358;-63
2022/01/16 08:38:22;;;;;;;33.67;16.95;;;;;;;;;;5151442;27;20110;-63
2022/01/16 08:40:48;;;;;;;30.23;15.85;;;;;;;;;;5149826;27;20059;-62
2022/01/16 08:43:14;;;;;;;28.38;15.15;;;;;;;;;;5151624;27;20046;-62
2022/01/16 08:45:41;;;;;;;25.85;14.55;;;;;;;;;;5151201;27;20055;-63
2022/01/16 08:48:08;;;;;;;31.23;14.18;;;;;;;;;;5151530;27;20548;-63
2022/01/16 08:50:35;;;;;;;26.70;14.40;;;;;;;;;;5151125;27;20568;-63
2022/01/16 08:53:02;;;;;;;26.23;12.85;;;;;;;;;;5151737;27;20074;-63
2022/01/16 08:55:29;;;;;;;25.40;13.73;;;;;;;;;;5150341;27;20142;-62
2022/01/16 08:57:59;;;;;;;26.25;13.55;;;;;;;;;;5151100;27;20075;-62
2022/01/16 09:00:25;;;;;;;22.00;12.15;;;;;;;;;;5151421;27;20170;-62
2022/01/16 09:02:52;;;;;;;23.33;12.05;;;;;;;;;;5151482;27;20051;-63
2022/01/16 09:05:19;;;;;;;22.67;10.85;;;;;;;;;;5151215;27;20055;-63
2022/01/16 09:07:45;;;;;;;19.60;10.32;;;;;;;;;;5150906;27;20047;-63
2022/01/16 09:10:11;;;;;;;22.33;10.20;;;;;;;;;;5151113;27;20058;-63
2022/01/16 09:12:38;;;;;;;22.10;11.13;;;;;;;;;;5151664;27;20138;-62
2022/01/16 09:15:08;;;;;;;23.95;10.10;;;;;;;;;;5151137;27;20047;-63
2022/01/16 09:17:34;;;;;;;20.33;9.63;;;;;;;;;;5129068;27;20155;-63
2022/01/16 09:20:01;;;;;;;20.02;9.20;;;;;;;;;;5128405;27;20048;-63
2022/01/16 09:22:27;;;;;;;18.75;9.80;;;;;;;;;;5129794;27;20699;-62
2022/01/16 09:24:54;;;;;;;19.52;9.68;;;;;;;;;;5129973;27;20586;-62
2022/01/16 09:27:20;;;;;;;19.00;10.88;;;;;;;;;;5130132;27;20131;-63
2022/01/16 09:29:46;;;;;;;21.88;9.63;;;;;;;;;;5130247;27;20048;-62
2022/01/16 09:32:13;;;;;;;18.52;9.02;;;;;;;;;;5129769;27;20056;-63
2022/01/16 09:34:40;;;;;;;17.38;9.30;;;;;;;;;;5130610;27;20429;-63
2022/01/16 09:37:09;;;;;;;18.60;9.32;;;;;;;;;;5129894;27;20066;-63
2022/01/16 09:39:35;;;;;;;;;;;;;;;;;;5130291;27;20072;-62
2022/01/16 09:42:03;;;;;;;16.60;8.35;;;;;;;;;;5129132;27;45281;-63
2022/01/16 09:44:29;;;;;;;24.35;9.00;;;;;;;;;;5129332;27;20066;-62
2022/01/16 09:46:57;;;;;;;18.55;8.73;;;;;;;;;;5130193;27;20054;-65
2022/01/16 09:49:24;;;;;;;20.23;8.65;;;;;;;;;;5128991;27;20073;-63
2022/01/16 09:51:51;;;;;;;18.02;8.43;;;;;;;;;;5128766;27;20500;-64
2022/01/16 09:54:19;;;;;;;18.48;9.27;;;;;;;;;;5129783;27;20048;-63
2022/01/16 09:56:45;;;;;;;16.80;9.30;;;;;;;;;;5129671;27;20540;-63
2022/01/16 09:59:11;;;;;;;19.80;9.88;;;;;;;;;;5129391;27;20044;-63
2022/01/16 10:01:38;;;;;;;21.58;10.65;;;;;;;;;;5129546;27;20056;-63
2022/01/16 10:04:04;;;;;;;24.20;11.52;;;;;;;;;;5110828;27;20066;-63
2022/01/16 10:06:30;;;;;;;26.52;11.15;;;;;;;;;;5129771;27;20051;-63
2022/01/16 10:08:57;;;;;;;32.40;12.32;;;;;;;;;;5128887;27;20608;-63
2022/01/16 10:11:25;;;;;;;27.20;13.45;;;;;;;;;;5129357;27;20058;-63
2022/01/16 10:13:58;;;;;;;30.48;13.52;;;;;;;;;;5128534;27;20120;-63
2022/01/16 10:16:26;;;;;;;27.90;13.75;;;;;;;;;;5129124;27;20052;-64
2022/01/16 10:18:52;;;;;;;30.50;15.13;;;;;;;;;;5129128;27;20055;-63
2022/01/16 10:21:35;;;;;;;39.45;17.35;;;;;;;;;;5129620;27;20055;-63
2022/01/16 10:24:15;;;;;;;41.35;18.40;;;;;;;;;;5129169;27;20060;-63
2022/01/16 10:26:41;;;;;;;43.67;19.20;;;;;;;;;;5128771;27;20142;-63
2022/01/16 10:29:13;;;;;;;49.63;19.75;;;;;;;;;;5129264;27;20062;-64
2022/01/16 10:31:39;;;;;;;49.10;21.77;;;;;;;;;;5128972;27;20134;-63
2022/01/16 10:34:21;;;;;;;46.33;20.63;;;;;;;;;;5128427;27;20134;-63
2022/01/16 10:36:47;;;;;;;48.22;20.70;;;;;;;;;;5128831;27;20513;-64
2022/01/16 10:39:13;;;;;;;51.17;21.63;;;;;;;;;;5128531;27;20052;-62
2022/01/16 10:41:40;;;;;;;53.75;21.08;;;;;;;;;;5129185;27;20136;-62
2022/01/16 10:44:24;;;;;;;55.08;21.15;;;;;;;;;;5128953;27;20059;-62
2022/01/16 10:46:51;;;;;;;54.92;22.58;;;;;;;;;;5128572;27;20108;-63
2022/01/16 10:49:18;;;;;;;60.38;23.55;;;;;;;;;;5129529;27;20109;-64
2022/01/16 10:52:00;;;;;;;56.80;23.40;;;;;;;;;;5128515;27;20150;-65
2022/01/16 10:54:32;;;;;;;63.33;24.55;;;;;;;;;;5129450;27;20516;-63
2022/01/16 10:57:16;;;;;;;59.53;23.67;;;;;;;;;;5128619;27;20051;-63
2022/01/16 10:59:43;;;;;;;65.50;24.05;;;;;;;;;;5128082;27;20056;-63
2022/01/16 11:02:10;;;;;;;57.55;24.27;;;;;;;;;;5128731;27;20079;-65
2022/01/16 11:04:36;;;;;;;61.42;25.17;;;;;;;;;;5132208;27;20051;-63
2022/01/16 11:07:03;;;;;;;62.10;24.77;;;;;;;;;;5132868;27;20055;-65
2022/01/16 11:09:31;;;;;;;66.25;25.75;;;;;;;;;;5141873;27;20047;-62
2022/01/16 11:11:59;;;;;;;55.33;24.17;;;;;;;;;;5150914;27;20061;-63
2022/01/16 11:14:29;;;;;;;65.03;24.73;;;;;;;;;;5134597;27;20060;-64
2022/01/16 11:16:56;;;;;;;68.28;27.23;;;;;;;;;;5131577;27;20432;-62
2022/01/16 11:19:24;;;;;;;80.65;27.48;;;;;;;;;;5139621;27;20055;-64
2022/01/16 11:21:53;;;;;;;76.57;28.20;;;;;;;;;;5153061;27;20055;-63
2022/01/16 11:24:36;;;;;;;74.18;26.83;;;;;;;;;;5134571;27;20051;-64
2022/01/16 11:27:02;;;;;;;74.38;27.30;;;;;;;;;;5133334;27;20051;-63
2022/01/16 11:29:29;;;;;;;80.85;29.40;;;;;;;;;;5141644;27;20126;-63
2022/01/16 11:31:56;;;;;;;79.05;28.13;;;;;;;;;;5152970;27;20146;-64
2022/01/16 11:34:22;;;;;;;75.82;28.10;;;;;;;;;;5140207;27;20043;-63
2022/01/16 11:36:49;;;;;;;77.38;27.83;;;;;;;;;;5151959;27;20043;-62
2022/01/16 11:39:16;;;;;;;72.05;27.08;;;;;;;;;;5152138;27;20241;-62
2022/01/16 11:41:54;;;;;;;72.50;27.58;;;;;;;;;;5152430;27;20051;-63
2022/01/16 11:44:21;;;;;;;68.07;26.83;;;;;;;;;;5152129;27;20440;-62
2022/01/16 11:46:51;;;;;;;76.65;27.35;;;;;;;;;;5152474;27;20055;-63
2022/01/16 11:49:30;;;;;;;77.43;27.77;;;;;;;;;;5151195;27;20150;-62
2022/01/16 11:52:02;;;;;;;69.15;26.92;;;;;;;;;;5151899;27;20065;-63
2022/01/16 11:54:30;;;;;;;73.35;26.60;;;;;;;;;;5146067;27;20059;-63
2022/01/16 11:56:59;;;;;;;70.93;25.92;;;;;;;;;;5138043;27;20163;-64
2022/01/16 11:59:34;;;;;;;79.60;29.75;;;;;;;;;;5143377;27;20061;-63
2022/01/16 12:02:02;;;;;;;70.20;26.33;;;;;;;;;;5152084;27;20142;-64
2022/01/16 12:04:28;;;;;;;70.40;27.45;;;;;;;;;;5152811;27;20043;-63
2022/01/16 12:07:00;;;;;;;78.75;27.50;;;;;;;;;;5148941;27;20150;-63
2022/01/16 12:12:11;;;;;;;73.30;27.73;;;;;;;;;;5132832;27;20066;-63
2022/01/16 12:14:47;;;;;;;71.40;27.35;;;;;;;;;;5130300;27;20055;-63
2022/01/16 12:17:27;;;;;;;76.85;27.67;;;;;;;;;;5131509;27;20055;-63
2022/01/16 12:19:54;;;;;;;72.25;26.65;;;;;;;;;;5132596;27;20505;-63
2022/01/16 12:22:42;;;;;;;83.45;28.77;;;;;;;;;;5132429;27;20079;-63
2022/01/16 12:25:16;;;;;;;83.35;28.58;;;;;;;;;;5136159;27;20077;-63
2022/01/16 12:27:46;;;;;;;77.22;28.42;;;;;;;;;;5134904;27;20054;-63
2022/01/16 12:30:21;;;;;;;72.70;26.70;;;;;;;;;;5147631;27;20059;-64
2022/01/16 12:32:58;;;;;;;83.82;29.20;;;;;;;;;;5149236;27;20711;-64
2022/01/16 12:35:39;;;;;;;79.03;28.02;;;;;;;;;;5131378;27;20056;-63
2022/01/16 12:38:06;;;;;;;85.30;28.55;;;;;;;;;;5148438;27;20047;-64
2022/01/16 12:40:32;;;;;;;89.70;30.52;;;;;;;;;;5151648;27;20523;-64
2022/01/16 12:43:02;;;;;;;91.07;31.48;;;;;;;;;;5152901;27;20138;-63
2022/01/16 12:45:29;;;;;;;83.05;28.80;;;;;;;;;;5152495;27;20138;-64
2022/01/16 12:47:56;;;;;;;86.35;31.13;;;;;;;;;;5136751;27;20051;-64
2022/01/16 12:50:23;;;;;;;77.38;30.30;;;;;;;;;;5133343;27;20091;-64
2022/01/16 12:52:49;;;;;;;77.65;29.77;;;;;;;;;;5134843;27;20052;-64
2022/01/16 12:55:16;;;;;;;75.88;28.05;;;;;;;;;;5149982;27;20146;-64
2022/01/16 12:57:42;;;;;;;80.40;28.45;;;;;;;;;;5142167;27;20506;-64
2022/01/16 13:00:09;;;;;;;79.72;27.77;;;;;;;;;;5131023;27;20048;-64
2022/01/16 13:02:36;;;;;;;71.63;27.60;;;;;;;;;;5132118;27;20051;-64
2022/01/16 13:05:03;;;;;;;75.05;27.75;;;;;;;;;;5133848;27;20083;-64
2022/01/16 13:07:37;;;;;;;78.72;30.20;;;;;;;;;;5136386;27;20063;-64
2022/01/16 13:10:03;;;;;;;73.25;27.50;;;;;;;;;;5131728;27;20576;-64
2022/01/16 13:12:30;;;;;;;79.57;28.80;;;;;;;;;;5137950;27;20047;-63
2022/01/16 13:15:00;;;;;;;74.65;26.83;;;;;;;;;;5150907;27;20582;-65
2022/01/16 13:17:29;;;;;;;65.88;27.05;;;;;;;;;;5153223;27;20580;-63
2022/01/16 13:19:57;;;;;;;65.68;26.17;;;;;;;;;;5152192;27;20051;-64
2022/01/16 13:22:32;;;;;;;78.80;27.00;;;;;;;;;;5134408;27;20043;-64
2022/01/16 13:25:02;;;;;;;70.25;27.98;;;;;;;;;;5131045;27;20479;-64
2022/01/16 13:27:31;;;;;;;62.63;26.85;;;;;;;;;;5135320;27;20061;-64
2022/01/16 13:29:58;;;;;;;57.65;24.23;;;;;;;;;;5148643;27;20043;-63
2022/01/16 13:32:28;;;;;;;60.30;24.55;;;;;;;;;;5151883;27;20505;-63
2022/01/16 13:35:00;;;;;;;59.88;24.23;;;;;;;;;;5151383;27;20977;-63
2022/01/16 13:37:27;;;;;;;53.83;22.95;;;;;;;;;;5150019;27;20134;-63
2022/01/16 13:40:02;;;;;;;53.33;21.73;;;;;;;;;;5169996;27;20579;-64
2022/01/16 13:42:39;;;;;;;52.38;21.80;;;;;;;;;;5160101;27;20964;-64
2022/01/16 13:45:32;;;;;;;42.58;20.13;;;;;;;;;;5151764;27;20062;-64
2022/01/16 13:48:12;;;;;;;53.78;23.23;;;;;;;;;;5147503;27;20130;-63
2022/01/16 13:50:46;;;;;;;45.55;21.58;;;;;;;;;;5151759;27;20082;-63
2022/01/16 13:53:16;;;;;;;44.25;20.33;;;;;;;;;;5151402;27;20615;-63
2022/01/16 13:56:01;;;;;;;43.20;19.95;;;;;;;;;;5151445;27;20050;-63
2022/01/16 13:58:29;;;;;;;45.85;18.80;;;;;;;;;;5151951;27;20440;-64
2022/01/16 14:01:01;;;;;;;47.50;20.20;;;;;;;;;;5151551;27;20057;-63
2022/01/16 14:03:29;;;;;;;42.45;19.17;;;;;;;;;;5151124;27;20054;-63
2022/01/16 14:05:57;;;;;;;42.63;19.15;;;;;;;;;;5151246;27;20134;-63
2022/01/16 14:08:28;;;;;;;46.35;19.00;;;;;;;;;;5151295;27;20081;-63
2022/01/16 14:11:05;;;;;;;40.63;18.13;;;;;;;;;;5151094;27;20061;-64
2022/01/16 14:13:32;;;;;;;37.47;17.08;;;;;;;;;;5150828;27;20086;-64
2022/01/16 14:16:05;;;;;;;33.30;16.38;;;;;;;;;;5146435;27;20520;-64
2022/01/16 14:22:12;;;;;;;31.60;14.55;;;;;;;;;;5114450;27;20630;-64
2022/01/16 14:24:18;;;;;;;33.97;14.70;;;;;;;;;;5132505;27;20051;-63
2022/01/16 14:26:49;;;;;;;30.67;13.73;;;;;;;;;;5136552;27;20527;-64
2022/01/16 14:29:15;;;;;;;34.85;15.45;;;;;;;;;;5136730;27;20440;-64
2022/01/16 14:31:42;;;;;;;33.13;16.25;;;;;;;;;;5134918;27;20139;-64
2022/01/16 14:34:33;;;;;;;29.02;13.80;;;;;;;;;;5124476;27;20066;-64
2022/01/16 14:36:59;;;;;;;28.63;14.85;;;;;;;;;;5135888;27;20043;-63
2022/01/16 14:39:47;;;;;;;31.42;14.15;;;;;;;;;;5131344;27;20509;-63
2022/01/16 14:42:16;;;;;;;31.95;15.77;;;;;;;;;;5147425;27;20055;-63
2022/01/16 14:44:43;;;;;;;40.25;16.42;;;;;;;;;;5137497;27;20083;-64
2022/01/16 14:47:11;;;;;;;33.58;16.67;;;;;;;;;;5131852;27;20432;-64
2022/01/16 14:49:37;;;;;;;34.20;15.75;;;;;;;;;;5138029;27;20051;-63
2022/01/16 14:52:04;;;;;;;38.63;18.60;;;;;;;;;;5137229;27;20117;-64
2022/01/16 14:54:44;;;;;;;43.33;20.27;;;;;;;;;;5144977;27;20047;-64
2022/01/16 14:57:12;;;;;;;42.10;19.92;;;;;;;;;;5147946;27;20055;-64
2022/01/16 14:59:38;;;;;;;48.00;22.08;;;;;;;;;;5168457;27;20047;-65
2022/01/16 15:02:04;;;;;;;45.90;21.10;;;;;;;;;;5136341;27;20062;-65
2022/01/16 15:04:31;;;;;;;49.72;22.63;;;;;;;;;;5129768;27;20056;-65
2022/01/16 15:06:57;;;;;;;45.70;21.08;;;;;;;;;;5129666;27;20131;-64